sensor_id;sensor_type;location;lat;lon;timestamp;P1;durP1;ratioP1;P2;durP2;ratioP2
5904;SDS011;2978;42.012;24.880;2022-09-21T00:00:23;1.40;;;1.30;;
5904;SDS011;2978;42.012;24.880;2022-09-21T00:02:50;2.27;;;1.50;;
5904;SDS011;2978;42.012;24.880;2022-09-21T00:05:16;1.60;;;1.40;;
5904;SDS011;2978;42.012;24.880;2022-09-21T00:07:42;2.90;;;1.30;;
5904;SDS011;2978;42.012;24.880;2022-09-21T00:10:08;2.33;;;1.70;;
5904;SDS011;2978;42.012;24.880;2022-09-21T00:12:34;2.37;;;1.43;;
5904;SDS011;2978;42.012;24.880;2022-09-21T00:15:02;1.70;;;1.60;;
5904;SDS011;2978;42.012;24.880;2022-09-21T00:17:32;1.70;;;1.40;;
5904;SDS011;2978;42.012;24.880;2022-09-21T00:19:57;3.20;;;1.60;;
5904;SDS011;2978;42.012;24.880;2022-09-21T00:22:25;1.57;;;1.47;;
5904;SDS011;2978;42.012;24.880;2022-09-21T00:24:50;2.67;;;1.27;;
5904;SDS011;2978;42.012;24.880;2022-09-21T00:27:16;1.80;;;1.37;;
5904;SDS011;2978;42.012;24.880;2022-09-21T00:29:41;2.70;;;1.43;;
5904;SDS011;2978;42.012;24.880;2022-09-21T00:32:06;1.57;;;1.47;;
5904;SDS011;2978;42.012;24.880;2022-09-21T00:34:32;3.00;;;1.80;;
5904;SDS011;2978;42.012;24.880;2022-09-21T00:36:57;3.93;;;2.00;;
5904;SDS011;2978;42.012;24.880;2022-09-21T00:39:23;4.10;;;2.50;;
5904;SDS011;2978;42.012;24.880;2022-09-21T00:41:48;4.83;;;2.97;;
5904;SDS011;2978;42.012;24.880;2022-09-21T00:44:24;5.33;;;3.40;;
5904;SDS011;2978;42.012;24.880;2022-09-21T00:46:54;10.73;;;3.50;;
5904;SDS011;2978;42.012;24.880;2022-09-21T00:49:23;3.80;;;2.40;;
5904;SDS011;2978;42.012;24.880;2022-09-21T00:51:50;4.00;;;3.30;;
5904;SDS011;2978;42.012;24.880;2022-09-21T00:54:40;4.00;;;3.40;;
5904;SDS011;2978;42.012;24.880;2022-09-21T00:57:09;5.63;;;2.57;;
5904;SDS011;2978;42.012;24.880;2022-09-21T00:59:36;9.50;;;2.30;;
5904;SDS011;2978;42.012;24.880;2022-09-21T01:02:03;4.60;;;2.40;;
5904;SDS011;2978;42.012;24.880;2022-09-21T01:04:29;3.47;;;2.07;;
5904;SDS011;2978;42.012;24.880;2022-09-21T01:06:55;4.43;;;2.50;;
5904;SDS011;2978;42.012;24.880;2022-09-21T01:09:24;2.50;;;1.67;;
5904;SDS011;2978;42.012;24.880;2022-09-21T01:12:02;3.73;;;1.60;;
5904;SDS011;2978;42.012;24.880;2022-09-21T01:15:01;1.83;;;1.37;;
5904;SDS011;2978;42.012;24.880;2022-09-21T01:20:18;2.20;;;1.70;;
5904;SDS011;2978;42.012;24.880;2022-09-21T01:22:56;1.53;;;1.33;;
5904;SDS011;2978;42.012;24.880;2022-09-21T01:25:53;3.90;;;1.70;;
5904;SDS011;2978;42.012;24.880;2022-09-21T01:34:42;2.00;;;1.60;;
5904;SDS011;2978;42.012;24.880;2022-09-21T01:37:20;2.17;;;1.67;;
5904;SDS011;2978;42.012;24.880;2022-09-21T01:39:50;2.50;;;1.60;;
5904;SDS011;2978;42.012;24.880;2022-09-21T01:42:19;3.80;;;1.70;;
5904;SDS011;2978;42.012;24.880;2022-09-21T01:44:46;1.70;;;1.20;;
5904;SDS011;2978;42.012;24.880;2022-09-21T01:47:13;2.57;;;1.80;;
5904;SDS011;2978;42.012;24.880;2022-09-21T01:49:42;2.00;;;1.80;;
5904;SDS011;2978;42.012;24.880;2022-09-21T01:52:16;7.50;;;1.83;;
5904;SDS011;2978;42.012;24.880;2022-09-21T01:54:48;4.43;;;1.67;;
5904;SDS011;2978;42.012;24.880;2022-09-21T01:57:25;1.50;;;1.40;;
5904;SDS011;2978;42.012;24.880;2022-09-21T01:59:59;4.80;;;1.70;;
5904;SDS011;2978;42.012;24.880;2022-09-21T02:02:45;3.53;;;1.60;;
5904;SDS011;2978;42.012;24.880;2022-09-21T02:05:16;2.17;;;1.50;;
5904;SDS011;2978;42.012;24.880;2022-09-21T02:07:44;1.70;;;1.60;;
5904;SDS011;2978;42.012;24.880;2022-09-21T02:10:14;1.73;;;1.50;;
5904;SDS011;2978;42.012;24.880;2022-09-21T02:12:45;5.63;;;1.60;;
5904;SDS011;2978;42.012;24.880;2022-09-21T02:15:11;3.80;;;1.53;;
5904;SDS011;2978;42.012;24.880;2022-09-21T02:20:13;9.70;;;1.93;;
5904;SDS011;2978;42.012;24.880;2022-09-21T02:23:11;2.20;;;1.70;;
5904;SDS011;2978;42.012;24.880;2022-09-21T02:28:50;4.60;;;1.70;;
5904;SDS011;2978;42.012;24.880;2022-09-21T02:31:35;4.20;;;2.00;;
5904;SDS011;2978;42.012;24.880;2022-09-21T02:37:10;4.50;;;1.43;;
5904;SDS011;2978;42.012;24.880;2022-09-21T02:39:47;2.07;;;1.87;;
5904;SDS011;2978;42.012;24.880;2022-09-21T02:42:18;1.90;;;1.63;;
5904;SDS011;2978;42.012;24.880;2022-09-21T02:50:11;1.60;;;1.50;;
5904;SDS011;2978;42.012;24.880;2022-09-21T02:52:41;3.50;;;1.90;;
5904;SDS011;2978;42.012;24.880;2022-09-21T02:55:08;3.20;;;1.40;;
5904;SDS011;2978;42.012;24.880;2022-09-21T02:57:35;1.50;;;1.40;;
5904;SDS011;2978;42.012;24.880;2022-09-21T03:00:02;4.63;;;1.80;;
5904;SDS011;2978;42.012;24.880;2022-09-21T03:02:39;2.20;;;1.80;;
5904;SDS011;2978;42.012;24.880;2022-09-21T03:05:07;1.70;;;1.40;;
5904;SDS011;2978;42.012;24.880;2022-09-21T03:07:33;1.83;;;1.50;;
5904;SDS011;2978;42.012;24.880;2022-09-21T03:09:58;3.67;;;1.60;;
5904;SDS011;2978;42.012;24.880;2022-09-21T03:12:24;1.97;;;1.77;;
5904;SDS011;2978;42.012;24.880;2022-09-21T03:14:50;7.73;;;2.10;;
5904;SDS011;2978;42.012;24.880;2022-09-21T03:17:17;2.27;;;2.03;;
5904;SDS011;2978;42.012;24.880;2022-09-21T03:19:42;2.10;;;1.90;;
5904;SDS011;2978;42.012;24.880;2022-09-21T03:22:08;9.73;;;3.70;;
5904;SDS011;2978;42.012;24.880;2022-09-21T03:24:33;8.57;;;2.50;;
5904;SDS011;2978;42.012;24.880;2022-09-21T03:27:12;5.27;;;2.60;;
5904;SDS011;2978;42.012;24.880;2022-09-21T03:29:38;3.23;;;2.23;;
5904;SDS011;2978;42.012;24.880;2022-09-21T03:32:04;8.47;;;2.30;;
5904;SDS011;2978;42.012;24.880;2022-09-21T03:34:30;5.90;;;2.53;;
5904;SDS011;2978;42.012;24.880;2022-09-21T03:36:58;3.80;;;1.97;;
5904;SDS011;2978;42.012;24.880;2022-09-21T03:39:27;4.63;;;2.20;;
5904;SDS011;2978;42.012;24.880;2022-09-21T03:41:52;3.20;;;1.87;;
5904;SDS011;2978;42.012;24.880;2022-09-21T03:44:21;4.80;;;2.53;;
5904;SDS011;2978;42.012;24.880;2022-09-21T03:46:47;3.73;;;1.60;;
5904;SDS011;2978;42.012;24.880;2022-09-21T03:49:14;4.30;;;2.00;;
5904;SDS011;2978;42.012;24.880;2022-09-21T03:51:40;2.37;;;1.60;;
5904;SDS011;2978;42.012;24.880;2022-09-21T03:54:05;5.33;;;1.83;;
5904;SDS011;2978;42.012;24.880;2022-09-21T03:56:31;2.73;;;1.73;;
5904;SDS011;2978;42.012;24.880;2022-09-21T03:58:56;14.40;;;2.30;;
5904;SDS011;2978;42.012;24.880;2022-09-21T04:01:22;7.33;;;2.03;;
5904;SDS011;2978;42.012;24.880;2022-09-21T04:03:47;4.83;;;2.10;;
5904;SDS011;2978;42.012;24.880;2022-09-21T04:06:13;5.60;;;2.47;;
5904;SDS011;2978;42.012;24.880;2022-09-21T04:08:38;6.90;;;2.00;;
5904;SDS011;2978;42.012;24.880;2022-09-21T04:11:11;5.83;;;2.20;;
5904;SDS011;2978;42.012;24.880;2022-09-21T04:13:38;8.33;;;2.40;;
5904;SDS011;2978;42.012;24.880;2022-09-21T04:16:03;2.30;;;2.10;;
5904;SDS011;2978;42.012;24.880;2022-09-21T04:18:29;11.60;;;2.83;;
5904;SDS011;2978;42.012;24.880;2022-09-21T04:20:56;2.87;;;2.10;;
5904;SDS011;2978;42.012;24.880;2022-09-21T04:23:21;7.23;;;2.00;;
5904;SDS011;2978;42.012;24.880;2022-09-21T04:25:47;5.20;;;1.80;;
5904;SDS011;2978;42.012;24.880;2022-09-21T04:28:15;4.90;;;1.93;;
5904;SDS011;2978;42.012;24.880;2022-09-21T04:30:41;2.10;;;1.80;;
5904;SDS011;2978;42.012;24.880;2022-09-21T04:33:07;9.57;;;3.00;;
5904;SDS011;2978;42.012;24.880;2022-09-21T04:35:33;6.63;;;2.30;;
5904;SDS011;2978;42.012;24.880;2022-09-21T04:37:58;3.77;;;1.80;;
5904;SDS011;2978;42.012;24.880;2022-09-21T04:40:23;9.93;;;1.90;;
5904;SDS011;2978;42.012;24.880;2022-09-21T04:42:50;9.77;;;2.60;;
5904;SDS011;2978;42.012;24.880;2022-09-21T04:45:19;10.50;;;2.50;;
5904;SDS011;2978;42.012;24.880;2022-09-21T04:47:44;6.07;;;2.90;;
5904;SDS011;2978;42.012;24.880;2022-09-21T04:50:10;23.10;;;3.87;;
5904;SDS011;2978;42.012;24.880;2022-09-21T04:52:35;6.57;;;3.40;;
5904;SDS011;2978;42.012;24.880;2022-09-21T04:55:01;11.53;;;3.57;;
5904;SDS011;2978;42.012;24.880;2022-09-21T04:57:27;9.33;;;1.90;;
5904;SDS011;2978;42.012;24.880;2022-09-21T04:59:52;7.53;;;2.70;;
5904;SDS011;2978;42.012;24.880;2022-09-21T05:02:18;5.50;;;2.50;;
5904;SDS011;2978;42.012;24.880;2022-09-21T05:04:43;3.07;;;1.83;;
5904;SDS011;2978;42.012;24.880;2022-09-21T05:07:09;6.43;;;2.97;;
5904;SDS011;2978;42.012;24.880;2022-09-21T05:09:34;2.70;;;2.50;;
5904;SDS011;2978;42.012;24.880;2022-09-21T05:12:18;9.73;;;2.80;;
5904;SDS011;2978;42.012;24.880;2022-09-21T05:14:43;10.80;;;2.50;;
5904;SDS011;2978;42.012;24.880;2022-09-21T05:17:10;7.97;;;3.87;;
5904;SDS011;2978;42.012;24.880;2022-09-21T05:19:36;12.07;;;4.67;;
5904;SDS011;2978;42.012;24.880;2022-09-21T05:22:01;16.37;;;3.00;;
5904;SDS011;2978;42.012;24.880;2022-09-21T05:24:27;4.00;;;3.00;;
5904;SDS011;2978;42.012;24.880;2022-09-21T05:26:52;11.60;;;4.33;;
5904;SDS011;2978;42.012;24.880;2022-09-21T05:29:18;13.60;;;6.37;;
5904;SDS011;2978;42.012;24.880;2022-09-21T05:31:47;20.77;;;9.10;;
5904;SDS011;2978;42.012;24.880;2022-09-21T05:37:38;14.47;;;6.30;;
5904;SDS011;2978;42.012;24.880;2022-09-21T05:40:21;11.40;;;5.00;;
5904;SDS011;2978;42.012;24.880;2022-09-21T05:42:47;11.23;;;4.87;;
5904;SDS011;2978;42.012;24.880;2022-09-21T05:45:13;15.87;;;7.03;;
5904;SDS011;2978;42.012;24.880;2022-09-21T06:01:18;14.13;;;3.50;;
5904;SDS011;2978;42.012;24.880;2022-09-21T06:04:03;11.13;;;3.37;;
5904;SDS011;2978;42.012;24.880;2022-09-21T06:06:28;13.60;;;3.03;;
5904;SDS011;2978;42.012;24.880;2022-09-21T06:08:54;8.30;;;2.90;;
5904;SDS011;2978;42.012;24.880;2022-09-21T06:11:20;17.13;;;3.90;;
5904;SDS011;2978;42.012;24.880;2022-09-21T06:13:45;16.20;;;4.50;;
5904;SDS011;2978;42.012;24.880;2022-09-21T06:16:11;17.20;;;4.80;;
5904;SDS011;2978;42.012;24.880;2022-09-21T06:18:39;27.27;;;4.07;;
5904;SDS011;2978;42.012;24.880;2022-09-21T06:21:06;16.23;;;3.87;;
5904;SDS011;2978;42.012;24.880;2022-09-21T06:23:32;11.17;;;4.27;;
5904;SDS011;2978;42.012;24.880;2022-09-21T06:25:58;7.27;;;3.80;;
5904;SDS011;2978;42.012;24.880;2022-09-21T06:28:24;12.50;;;4.60;;
5904;SDS011;2978;42.012;24.880;2022-09-21T06:30:50;14.10;;;4.37;;
5904;SDS011;2978;42.012;24.880;2022-09-21T06:33:16;11.47;;;4.03;;
5904;SDS011;2978;42.012;24.880;2022-09-21T06:35:53;6.30;;;3.80;;
5904;SDS011;2978;42.012;24.880;2022-09-21T06:38:22;12.97;;;3.90;;
5904;SDS011;2978;42.012;24.880;2022-09-21T06:40:49;11.80;;;4.07;;
5904;SDS011;2978;42.012;24.880;2022-09-21T06:43:15;14.40;;;3.23;;
5904;SDS011;2978;42.012;24.880;2022-09-21T06:45:41;8.07;;;2.53;;
5904;SDS011;2978;42.012;24.880;2022-09-21T06:48:07;5.40;;;2.30;;
5904;SDS011;2978;42.012;24.880;2022-09-21T06:50:33;9.27;;;2.97;;
5904;SDS011;2978;42.012;24.880;2022-09-21T06:52:59;6.93;;;3.27;;
5904;SDS011;2978;42.012;24.880;2022-09-21T06:55:25;4.23;;;2.33;;
5904;SDS011;2978;42.012;24.880;2022-09-21T06:57:50;9.27;;;2.87;;
5904;SDS011;2978;42.012;24.880;2022-09-21T07:00:16;2.60;;;1.97;;
5904;SDS011;2978;42.012;24.880;2022-09-21T07:02:42;9.90;;;2.57;;
5904;SDS011;2978;42.012;24.880;2022-09-21T07:05:09;7.30;;;2.00;;
5904;SDS011;2978;42.012;24.880;2022-09-21T07:07:34;6.03;;;2.30;;
5904;SDS011;2978;42.012;24.880;2022-09-21T07:10:00;2.40;;;1.90;;
5904;SDS011;2978;42.012;24.880;2022-09-21T07:12:29;3.43;;;1.97;;
5904;SDS011;2978;42.012;24.880;2022-09-21T07:14:58;2.33;;;1.63;;
5904;SDS011;2978;42.012;24.880;2022-09-21T07:17:24;15.67;;;2.30;;
5904;SDS011;2978;42.012;24.880;2022-09-21T07:19:49;2.53;;;2.00;;
5904;SDS011;2978;42.012;24.880;2022-09-21T07:22:14;6.17;;;2.10;;
5904;SDS011;2978;42.012;24.880;2022-09-21T07:24:40;5.70;;;1.77;;
5904;SDS011;2978;42.012;24.880;2022-09-21T07:27:05;3.40;;;1.50;;
5904;SDS011;2978;42.012;24.880;2022-09-21T07:29:31;3.80;;;2.00;;
5904;SDS011;2978;42.012;24.880;2022-09-21T07:31:56;3.60;;;2.20;;
5904;SDS011;2978;42.012;24.880;2022-09-21T07:34:21;4.47;;;1.50;;
5904;SDS011;2978;42.012;24.880;2022-09-21T07:36:47;4.50;;;1.60;;
5904;SDS011;2978;42.012;24.880;2022-09-21T07:39:12;3.43;;;1.73;;
5904;SDS011;2978;42.012;24.880;2022-09-21T07:41:38;7.40;;;2.23;;
5904;SDS011;2978;42.012;24.880;2022-09-21T07:44:03;12.67;;;2.60;;
5904;SDS011;2978;42.012;24.880;2022-09-21T07:46:29;3.03;;;1.83;;
5904;SDS011;2978;42.012;24.880;2022-09-21T07:48:55;4.30;;;1.70;;
5904;SDS011;2978;42.012;24.880;2022-09-21T07:51:21;2.60;;;1.50;;
5904;SDS011;2978;42.012;24.880;2022-09-21T07:53:47;2.40;;;1.90;;
5904;SDS011;2978;42.012;24.880;2022-09-21T07:56:20;6.63;;;2.17;;
5904;SDS011;2978;42.012;24.880;2022-09-21T07:58:46;3.83;;;1.50;;
5904;SDS011;2978;42.012;24.880;2022-09-21T08:01:30;1.43;;;1.33;;
5904;SDS011;2978;42.012;24.880;2022-09-21T08:03:56;5.20;;;1.40;;
5904;SDS011;2978;42.012;24.880;2022-09-21T08:06:23;3.60;;;1.50;;
5904;SDS011;2978;42.012;24.880;2022-09-21T08:08:50;2.30;;;1.77;;
5904;SDS011;2978;42.012;24.880;2022-09-21T08:11:16;2.87;;;1.20;;
5904;SDS011;2978;42.012;24.880;2022-09-21T08:13:43;12.27;;;2.50;;
5904;SDS011;2978;42.012;24.880;2022-09-21T08:16:09;1.70;;;1.43;;
5904;SDS011;2978;42.012;24.880;2022-09-21T08:18:35;2.17;;;1.50;;
5904;SDS011;2978;42.012;24.880;2022-09-21T08:21:02;11.37;;;1.97;;
5904;SDS011;2978;42.012;24.880;2022-09-21T08:23:28;2.73;;;1.83;;
5904;SDS011;2978;42.012;24.880;2022-09-21T08:25:57;3.33;;;1.63;;
5904;SDS011;2978;42.012;24.880;2022-09-21T08:28:24;1.67;;;1.40;;
5904;SDS011;2978;42.012;24.880;2022-09-21T08:30:50;1.73;;;1.33;;
5904;SDS011;2978;42.012;24.880;2022-09-21T08:33:16;2.33;;;1.53;;
5904;SDS011;2978;42.012;24.880;2022-09-21T08:35:41;1.87;;;1.57;;
5904;SDS011;2978;42.012;24.880;2022-09-21T08:38:06;2.30;;;1.43;;
5904;SDS011;2978;42.012;24.880;2022-09-21T08:40:32;3.33;;;1.63;;
5904;SDS011;2978;42.012;24.880;2022-09-21T08:43:09;2.10;;;1.40;;
5904;SDS011;2978;42.012;24.880;2022-09-21T08:45:39;7.77;;;1.20;;
5904;SDS011;2978;42.012;24.880;2022-09-21T08:48:13;3.10;;;1.63;;
5904;SDS011;2978;42.012;24.880;2022-09-21T08:50:51;2.90;;;1.67;;
5904;SDS011;2978;42.012;24.880;2022-09-21T08:53:24;4.67;;;1.90;;
5904;SDS011;2978;42.012;24.880;2022-09-21T08:55:59;1.40;;;1.20;;
5904;SDS011;2978;42.012;24.880;2022-09-21T08:58:27;4.60;;;3.03;;
5904;SDS011;2978;42.012;24.880;2022-09-21T09:01:00;6.50;;;2.20;;
5904;SDS011;2978;42.012;24.880;2022-09-21T09:06:17;2.23;;;1.43;;
5904;SDS011;2978;42.012;24.880;2022-09-21T09:20:06;2.60;;;1.50;;
5904;SDS011;2978;42.012;24.880;2022-09-21T09:22:47;1.57;;;1.33;;
5904;SDS011;2978;42.012;24.880;2022-09-21T09:25:15;3.40;;;1.57;;
5904;SDS011;2978;42.012;24.880;2022-09-21T09:27:52;5.33;;;1.60;;
5904;SDS011;2978;42.012;24.880;2022-09-21T09:30:22;2.67;;;1.60;;
5904;SDS011;2978;42.012;24.880;2022-09-21T09:32:59;4.40;;;1.30;;
5904;SDS011;2978;42.012;24.880;2022-09-21T09:35:46;2.20;;;1.50;;
5904;SDS011;2978;42.012;24.880;2022-09-21T09:51:56;2.33;;;1.20;;
5904;SDS011;2978;42.012;24.880;2022-09-21T09:54:23;2.60;;;1.30;;
5904;SDS011;2978;42.012;24.880;2022-09-21T09:56:50;2.27;;;1.20;;
5904;SDS011;2978;42.012;24.880;2022-09-21T10:02:09;1.90;;;1.20;;
5904;SDS011;2978;42.012;24.880;2022-09-21T10:04:53;3.10;;;1.17;;
5904;SDS011;2978;42.012;24.880;2022-09-21T10:07:19;4.33;;;1.73;;
5904;SDS011;2978;42.012;24.880;2022-09-21T10:09:44;2.20;;;1.20;;
5904;SDS011;2978;42.012;24.880;2022-09-21T10:12:17;2.70;;;1.40;;
5904;SDS011;2978;42.012;24.880;2022-09-21T10:14:49;2.43;;;1.50;;
5904;SDS011;2978;42.012;24.880;2022-09-21T10:17:17;1.23;;;0.93;;
5904;SDS011;2978;42.012;24.880;2022-09-21T10:19:43;1.67;;;1.30;;
5904;SDS011;2978;42.012;24.880;2022-09-21T10:22:16;2.10;;;1.53;;
5904;SDS011;2978;42.012;24.880;2022-09-21T10:24:53;1.50;;;1.20;;
5904;SDS011;2978;42.012;24.880;2022-09-21T10:27:24;1.67;;;1.20;;
5904;SDS011;2978;42.012;24.880;2022-09-21T10:29:51;2.50;;;1.30;;
5904;SDS011;2978;42.012;24.880;2022-09-21T10:32:18;1.67;;;1.43;;
5904;SDS011;2978;42.012;24.880;2022-09-21T10:37:43;2.60;;;1.20;;
5904;SDS011;2978;42.012;24.880;2022-09-21T10:42:47;1.53;;;1.20;;
5904;SDS011;2978;42.012;24.880;2022-09-21T10:45:15;3.03;;;1.33;;
5904;SDS011;2978;42.012;24.880;2022-09-21T10:47:45;3.53;;;1.17;;
5904;SDS011;2978;42.012;24.880;2022-09-21T10:50:26;1.50;;;1.10;;
5904;SDS011;2978;42.012;24.880;2022-09-21T10:53:09;3.20;;;1.17;;
5904;SDS011;2978;42.012;24.880;2022-09-21T10:58:25;3.50;;;1.10;;
5904;SDS011;2978;42.012;24.880;2022-09-21T11:00:52;1.77;;;1.27;;
5904;SDS011;2978;42.012;24.880;2022-09-21T11:03:40;2.10;;;1.13;;
5904;SDS011;2978;42.012;24.880;2022-09-21T11:06:22;2.30;;;1.20;;
5904;SDS011;2978;42.012;24.880;2022-09-21T11:11:38;2.50;;;1.17;;
5904;SDS011;2978;42.012;24.880;2022-09-21T11:19:37;6.43;;;1.70;;
5904;SDS011;2978;42.012;24.880;2022-09-21T11:27:41;1.90;;;1.50;;
5904;SDS011;2978;42.012;24.880;2022-09-21T11:38:42;1.87;;;1.13;;
5904;SDS011;2978;42.012;24.880;2022-09-21T11:46:47;3.17;;;1.50;;
5904;SDS011;2978;42.012;24.880;2022-09-21T11:52:15;3.83;;;1.50;;
5904;SDS011;2978;42.012;24.880;2022-09-21T11:54:58;2.87;;;1.40;;
5904;SDS011;2978;42.012;24.880;2022-09-21T11:57:30;2.00;;;1.20;;
5904;SDS011;2978;42.012;24.880;2022-09-21T12:00:20;4.60;;;1.60;;
5904;SDS011;2978;42.012;24.880;2022-09-21T12:14:21;3.27;;;1.33;;
5904;SDS011;2978;42.012;24.880;2022-09-21T12:22:17;5.20;;;1.40;;
5904;SDS011;2978;42.012;24.880;2022-09-21T12:24:49;1.93;;;1.50;;
5904;SDS011;2978;42.012;24.880;2022-09-21T12:27:25;4.60;;;1.93;;
5904;SDS011;2978;42.012;24.880;2022-09-21T12:29:52;2.40;;;1.20;;
5904;SDS011;2978;42.012;24.880;2022-09-21T12:35:12;7.43;;;2.90;;
5904;SDS011;2978;42.012;24.880;2022-09-21T12:37:46;5.93;;;2.13;;
5904;SDS011;2978;42.012;24.880;2022-09-21T12:40:17;2.20;;;1.30;;
5904;SDS011;2978;42.012;24.880;2022-09-21T12:45:34;3.10;;;1.50;;
5904;SDS011;2978;42.012;24.880;2022-09-21T12:53:18;5.67;;;1.37;;
5904;SDS011;2978;42.012;24.880;2022-09-21T12:55:51;5.10;;;1.40;;
5904;SDS011;2978;42.012;24.880;2022-09-21T13:09:21;14.90;;;1.60;;
5904;SDS011;2978;42.012;24.880;2022-09-21T13:11:49;1.80;;;1.13;;
5904;SDS011;2978;42.012;24.880;2022-09-21T13:14:22;2.33;;;1.40;;
5904;SDS011;2978;42.012;24.880;2022-09-21T13:16:57;3.40;;;1.50;;
5904;SDS011;2978;42.012;24.880;2022-09-21T13:19:27;1.70;;;1.20;;
5904;SDS011;2978;42.012;24.880;2022-09-21T13:24:46;3.87;;;1.47;;
5904;SDS011;2978;42.012;24.880;2022-09-21T13:30:30;3.53;;;1.80;;
5904;SDS011;2978;42.012;24.880;2022-09-21T13:38:30;7.40;;;1.90;;
5904;SDS011;2978;42.012;24.880;2022-09-21T14:02:37;1.77;;;1.40;;
5904;SDS011;2978;42.012;24.880;2022-09-21T14:10:55;2.57;;;1.63;;
5904;SDS011;2978;42.012;24.880;2022-09-21T14:15:50;1.83;;;1.30;;
5904;SDS011;2978;42.012;24.880;2022-09-21T14:18:20;2.33;;;1.60;;
5904;SDS011;2978;42.012;24.880;2022-09-21T14:23:32;8.07;;;2.47;;
5904;SDS011;2978;42.012;24.880;2022-09-21T14:25:59;2.93;;;1.70;;
5904;SDS011;2978;42.012;24.880;2022-09-21T14:28:43;2.03;;;1.20;;
5904;SDS011;2978;42.012;24.880;2022-09-21T14:31:16;8.30;;;2.30;;
5904;SDS011;2978;42.012;24.880;2022-09-21T14:33:47;8.23;;;1.90;;
5904;SDS011;2978;42.012;24.880;2022-09-21T14:36:19;6.70;;;1.80;;
5904;SDS011;2978;42.012;24.880;2022-09-21T14:38:54;2.40;;;1.70;;
5904;SDS011;2978;42.012;24.880;2022-09-21T14:41:24;4.00;;;1.97;;
5904;SDS011;2978;42.012;24.880;2022-09-21T14:43:55;5.03;;;1.60;;
5904;SDS011;2978;42.012;24.880;2022-09-21T14:52:19;2.60;;;1.27;;
5904;SDS011;2978;42.012;24.880;2022-09-21T15:00:39;2.30;;;1.20;;
5904;SDS011;2978;42.012;24.880;2022-09-21T15:09:26;4.27;;;1.37;;
5904;SDS011;2978;42.012;24.880;2022-09-21T15:12:40;4.80;;;1.60;;
5904;SDS011;2978;42.012;24.880;2022-09-21T15:15:19;4.93;;;2.43;;
5904;SDS011;2978;42.012;24.880;2022-09-21T15:18:12;2.17;;;1.37;;
5904;SDS011;2978;42.012;24.880;2022-09-21T15:20:41;3.87;;;1.53;;
5904;SDS011;2978;42.012;24.880;2022-09-21T15:23:15;3.80;;;1.60;;
5904;SDS011;2978;42.012;24.880;2022-09-21T15:25:43;2.30;;;1.60;;
5904;SDS011;2978;42.012;24.880;2022-09-21T15:28:22;3.93;;;2.07;;
5904;SDS011;2978;42.012;24.880;2022-09-21T15:30:50;2.70;;;2.00;;
5904;SDS011;2978;42.012;24.880;2022-09-21T15:33:21;7.00;;;1.70;;
5904;SDS011;2978;42.012;24.880;2022-09-21T15:35:47;4.87;;;2.10;;
5904;SDS011;2978;42.012;24.880;2022-09-21T15:38:29;5.83;;;1.73;;
5904;SDS011;2978;42.012;24.880;2022-09-21T15:40:56;3.80;;;1.70;;
5904;SDS011;2978;42.012;24.880;2022-09-21T15:43:22;6.50;;;2.87;;
5904;SDS011;2978;42.012;24.880;2022-09-21T15:45:48;2.40;;;1.70;;
5904;SDS011;2978;42.012;24.880;2022-09-21T15:48:18;2.20;;;1.70;;
5904;SDS011;2978;42.012;24.880;2022-09-21T15:50:45;3.57;;;2.20;;
5904;SDS011;2978;42.012;24.880;2022-09-21T15:53:19;2.23;;;1.67;;
5904;SDS011;2978;42.012;24.880;2022-09-21T15:55:55;8.93;;;3.70;;
5904;SDS011;2978;42.012;24.880;2022-09-21T15:58:32;7.03;;;3.00;;
5904;SDS011;2978;42.012;24.880;2022-09-21T16:01:13;4.83;;;2.93;;
5904;SDS011;2978;42.012;24.880;2022-09-21T16:03:41;20.50;;;5.70;;
5904;SDS011;2978;42.012;24.880;2022-09-21T16:08:47;2.90;;;2.20;;
5904;SDS011;2978;42.012;24.880;2022-09-21T16:13:58;9.63;;;4.10;;
5904;SDS011;2978;42.012;24.880;2022-09-21T16:17:03;3.23;;;2.37;;
5904;SDS011;2978;42.012;24.880;2022-09-21T16:22:15;3.30;;;2.23;;
5904;SDS011;2978;42.012;24.880;2022-09-21T16:24:53;4.77;;;2.60;;
5904;SDS011;2978;42.012;24.880;2022-09-21T16:27:25;8.20;;;3.87;;
5904;SDS011;2978;42.012;24.880;2022-09-21T16:29:53;8.27;;;2.20;;
5904;SDS011;2978;42.012;24.880;2022-09-21T16:32:29;4.37;;;2.30;;
5904;SDS011;2978;42.012;24.880;2022-09-21T16:37:58;10.53;;;2.60;;
5904;SDS011;2978;42.012;24.880;2022-09-21T16:40:24;5.83;;;2.20;;
5904;SDS011;2978;42.012;24.880;2022-09-21T16:42:50;3.70;;;1.90;;
5904;SDS011;2978;42.012;24.880;2022-09-21T16:45:21;3.70;;;1.97;;
5904;SDS011;2978;42.012;24.880;2022-09-21T16:47:56;3.27;;;2.03;;
5904;SDS011;2978;42.012;24.880;2022-09-21T16:50:23;3.23;;;2.20;;
5904;SDS011;2978;42.012;24.880;2022-09-21T16:52:49;3.20;;;1.97;;
5904;SDS011;2978;42.012;24.880;2022-09-21T16:55:19;2.80;;;2.20;;
5904;SDS011;2978;42.012;24.880;2022-09-21T16:57:45;3.50;;;1.83;;
5904;SDS011;2978;42.012;24.880;2022-09-21T17:00:13;2.63;;;1.77;;
5904;SDS011;2978;42.012;24.880;2022-09-21T17:02:45;2.53;;;2.03;;
5904;SDS011;2978;42.012;24.880;2022-09-21T17:05:10;3.00;;;1.60;;
5904;SDS011;2978;42.012;24.880;2022-09-21T17:07:46;3.90;;;2.13;;
5904;SDS011;2978;42.012;24.880;2022-09-21T17:10:15;2.43;;;2.03;;
5904;SDS011;2978;42.012;24.880;2022-09-21T17:12:43;2.40;;;1.77;;
5904;SDS011;2978;42.012;24.880;2022-09-21T17:15:10;2.83;;;2.20;;
5904;SDS011;2978;42.012;24.880;2022-09-21T17:17:36;2.70;;;1.57;;
5904;SDS011;2978;42.012;24.880;2022-09-21T17:20:07;1.70;;;1.60;;
5904;SDS011;2978;42.012;24.880;2022-09-21T17:22:41;2.57;;;1.90;;
5904;SDS011;2978;42.012;24.880;2022-09-21T17:25:06;2.30;;;1.70;;
5904;SDS011;2978;42.012;24.880;2022-09-21T17:27:32;4.43;;;2.53;;
5904;SDS011;2978;42.012;24.880;2022-09-21T17:29:58;2.30;;;1.90;;
5904;SDS011;2978;42.012;24.880;2022-09-21T17:32:27;3.40;;;2.07;;
5904;SDS011;2978;42.012;24.880;2022-09-21T17:34:58;2.27;;;1.70;;
5904;SDS011;2978;42.012;24.880;2022-09-21T17:37:36;4.53;;;2.30;;
5904;SDS011;2978;42.012;24.880;2022-09-21T17:40:02;3.43;;;2.30;;
5904;SDS011;2978;42.012;24.880;2022-09-21T17:42:28;3.27;;;2.07;;
5904;SDS011;2978;42.012;24.880;2022-09-21T17:47:43;3.30;;;2.80;;
5904;SDS011;2978;42.012;24.880;2022-09-21T17:52:37;3.57;;;2.20;;
5904;SDS011;2978;42.012;24.880;2022-09-21T17:55:22;3.20;;;2.33;;
5904;SDS011;2978;42.012;24.880;2022-09-21T18:03:29;2.47;;;1.97;;
5904;SDS011;2978;42.012;24.880;2022-09-21T18:06:00;3.40;;;2.07;;
5904;SDS011;2978;42.012;24.880;2022-09-21T18:08:30;1.83;;;1.70;;
5904;SDS011;2978;42.012;24.880;2022-09-21T18:13:38;2.70;;;2.50;;
5904;SDS011;2978;42.012;24.880;2022-09-21T18:18:57;2.53;;;2.20;;
5904;SDS011;2978;42.012;24.880;2022-09-21T18:21:38;2.33;;;2.13;;
5904;SDS011;2978;42.012;24.880;2022-09-21T18:24:20;4.10;;;2.77;;
5904;SDS011;2978;42.012;24.880;2022-09-21T18:26:56;4.07;;;2.67;;
5904;SDS011;2978;42.012;24.880;2022-09-21T18:31:50;3.20;;;2.30;;
5904;SDS011;2978;42.012;24.880;2022-09-21T18:34:26;4.00;;;2.60;;
5904;SDS011;2978;42.012;24.880;2022-09-21T18:37:20;3.10;;;2.00;;
5904;SDS011;2978;42.012;24.880;2022-09-21T18:46:27;4.93;;;3.00;;
5904;SDS011;2978;42.012;24.880;2022-09-21T18:52:28;2.33;;;2.13;;
5904;SDS011;2978;42.012;24.880;2022-09-21T18:55:07;3.60;;;1.83;;
5904;SDS011;2978;42.012;24.880;2022-09-21T18:57:39;4.40;;;2.20;;
5904;SDS011;2978;42.012;24.880;2022-09-21T19:00:04;3.20;;;2.20;;
5904;SDS011;2978;42.012;24.880;2022-09-21T19:02:31;19.13;;;2.60;;
5904;SDS011;2978;42.012;24.880;2022-09-21T19:04:56;9.43;;;2.47;;
5904;SDS011;2978;42.012;24.880;2022-09-21T19:10:02;7.83;;;2.97;;
5904;SDS011;2978;42.012;24.880;2022-09-21T19:15:26;19.93;;;2.43;;
5904;SDS011;2978;42.012;24.880;2022-09-21T19:31:38;11.57;;;2.30;;
5904;SDS011;2978;42.012;24.880;2022-09-21T19:34:22;5.20;;;2.10;;
5904;SDS011;2978;42.012;24.880;2022-09-21T19:36:47;3.77;;;1.80;;
5904;SDS011;2978;42.012;24.880;2022-09-21T19:39:13;6.27;;;2.00;;
5904;SDS011;2978;42.012;24.880;2022-09-21T19:41:58;7.20;;;1.90;;
5904;SDS011;2978;42.012;24.880;2022-09-21T19:47:51;4.53;;;2.57;;
5904;SDS011;2978;42.012;24.880;2022-09-21T19:50:22;5.53;;;2.20;;